Terminal Aerodrome Forecast
Issued by NWS Mobile, AL

Home | Current Version | Previous Version | Text Only | Print | Product List | Glossary On
Versions: 1 2 3 4 5 6 7 8 9 10 11 12 13 14 15 16 17 18 19 20 21 22 23 24
000
FTUS44 KMOB 240520
TAFPNS
TAF
KPNS 240520Z 2406/2506 21008KT P6SM FEW023 BKN250
     FM240700 19007KT P6SM FEW035 OVC250
     FM241500 22013KT P6SM FEW030 BKN250
     FM241800 22013G20KT P6SM VCTS SCT030CB BKN250=

USA.gov is the U.S. government's official web portal to all federal, state and local government web resources and services.